Darstellungsparameter: Aktuell verwendete Einstellungen:
Skalierung der Graphiken ... ?
xyx+y,   Skalierungsfaktor:      Skalierung: Modus: x, Faktor: 1
Darstellungszeitraum ... ?
Vom - - bis: - -   Zeitraum: 02.03.2003 - 02.03.2003
Min/Max/Avg-Anzeige ... ?
Zeige MMA aktuell
Zeige MMA Monat
Zeige MMA alles
Zeige --A aktuell
Zeige --A Monat
Zeige --A alles
Keine MMA-Anzeige
MMA:
Minimum Maximum Average (ber die Originaldaten)
MMA-Basis: 23.02.2003 - 30.09.2000
Quicknavigation für Darstellung... ?
Tage:      1T, 2T, 3T, 5T -1T -2T -3T -5T +1T +2T +3T +5T
Wochen: 1W, 2W, 3W -1W -2W -3W +1W +2W +3W
Monate: 1M, 3M, 6M -1M -3M -6M +1M +3M +6M
Jahre:    1J, 3J, 5J, 10J -1J -3J -5J -10J +1J +3J +5J +10J
Nutze für die Darstellung ... ?
Originaldaten oder Mittelwerte auf ...
Stundenbasis Tagesbasis Wochenbasis
Monatsbasis Jahresbasis      Datenbasis: Original-Daten
Darstellen als:
Statistik (Auto) Statistik J:M      Darstellung:
Zur Graphik,    zurück zur Übersicht aller Sensoren.
 
Tabellarische Datenbersicht: ?
 
Sensor: Nr:Datum:Temp:Abs-Feuchte:Windchill:Wind:
Aussen-T/F 1 02-03-2003 00:02:11 8 C 7.28 g/m*3 8 C 0 km/h
2 02-03-2003 00:02:37 8 C 7.28 g/m*3 8 C 0 km/h
3 02-03-2003 00:08:11 8.1 C 7.32 g/m*3 8.1 C 0 km/h
4 02-03-2003 00:08:37 8.1 C 7.32 g/m*3 8.1 C 0 km/h
5 02-03-2003 00:14:11 8 C 7.36 g/m*3 8 C 0 km/h
6 02-03-2003 00:14:37 8 C 7.36 g/m*3 8 C 0 km/h
7 02-03-2003 00:20:11 7.9 C 7.39 g/m*3 7.9 C 0 km/h
8 02-03-2003 00:20:37 7.9 C 7.39 g/m*3 7.9 C 0 km/h
9 02-03-2003 00:26:11 7.9 C 7.39 g/m*3 7.9 C 0 km/h
10 02-03-2003 00:26:37 7.9 C 7.39 g/m*3 7.9 C 0 km/h
11 02-03-2003 00:32:11 7.9 C 7.39 g/m*3 7.9 C 0 km/h
12 02-03-2003 00:32:37 7.9 C 7.39 g/m*3 7.9 C 0 km/h
13 02-03-2003 00:38:11 7.8 C 7.35 g/m*3 7.8 C 0 km/h
14 02-03-2003 00:38:37 7.8 C 7.35 g/m*3 7.8 C 0 km/h
15 02-03-2003 00:44:11 7.8 C 7.35 g/m*3 7.8 C 0 km/h
16 02-03-2003 00:44:37 7.8 C 7.35 g/m*3 7.8 C 0 km/h
17 02-03-2003 00:50:11 7.8 C 7.43 g/m*3 7.8 C 0 km/h
18 02-03-2003 00:50:37 7.8 C 7.43 g/m*3 7.8 C 0 km/h
19 02-03-2003 00:56:11 7.9 C 7.39 g/m*3 7.9 C 0 km/h
20 02-03-2003 00:56:37 7.9 C 7.39 g/m*3 7.9 C 0 km/h
21 02-03-2003 01:02:11 7.9 C 7.39 g/m*3 7.9 C 0 km/h
22 02-03-2003 01:02:37 7.9 C 7.39 g/m*3 7.9 C 0 km/h
23 02-03-2003 01:08:11 7.8 C 7.35 g/m*3 7.8 C 0 km/h
24 02-03-2003 01:08:37 7.8 C 7.35 g/m*3 7.8 C 0 km/h
25 02-03-2003 01:14:11 7.8 C 7.35 g/m*3 7.8 C 0 km/h
Sensor: Nr:Datum:Temp:Abs-Feuchte:Windchill:Wind:
Aussen-T/F 26 02-03-2003 01:14:37 7.8 C 7.35 g/m*3 7.8 C 0 km/h
27 02-03-2003 01:20:11 7.8 C 7.43 g/m*3 7.8 C 0 km/h
28 02-03-2003 01:20:37 7.8 C 7.43 g/m*3 7.8 C 0 km/h
29 02-03-2003 01:26:11 7.7 C 7.38 g/m*3 7.7 C 0 km/h
30 02-03-2003 01:26:37 7.7 C 7.38 g/m*3 7.7 C 0 km/h
31 02-03-2003 01:32:11 7.8 C 7.43 g/m*3 7.8 C 0 km/h
32 02-03-2003 01:32:37 7.8 C 7.43 g/m*3 7.8 C 0 km/h
33 02-03-2003 01:38:11 7.8 C 7.43 g/m*3 7.8 C 0 km/h
34 02-03-2003 01:38:37 7.8 C 7.43 g/m*3 7.8 C 0 km/h
35 02-03-2003 01:44:11 7.8 C 7.43 g/m*3 7.8 C 0 km/h
36 02-03-2003 01:44:37 7.8 C 7.43 g/m*3 7.8 C 0 km/h
37 02-03-2003 01:50:11 7.7 C 7.38 g/m*3 7.7 C 0 km/h
38 02-03-2003 01:50:37 7.7 C 7.38 g/m*3 7.7 C 0 km/h
39 02-03-2003 01:56:11 7.8 C 7.43 g/m*3 7.8 C 0 km/h
40 02-03-2003 01:56:37 7.8 C 7.43 g/m*3 7.8 C 0 km/h
41 02-03-2003 02:02:11 7.8 C 7.43 g/m*3 7.8 C 0 km/h
42 02-03-2003 02:02:37 7.8 C 7.43 g/m*3 7.8 C 0 km/h
43 02-03-2003 02:08:11 7.7 C 7.38 g/m*3 7.7 C 0 km/h
44 02-03-2003 02:08:37 7.7 C 7.38 g/m*3 7.7 C 0 km/h
45 02-03-2003 02:14:11 7.6 C 7.33 g/m*3 7.6 C 0 km/h
46 02-03-2003 02:14:37 7.6 C 7.33 g/m*3 7.6 C 0 km/h
47 02-03-2003 02:20:11 7.6 C 7.33 g/m*3 7.6 C 0 km/h
48 02-03-2003 02:20:37 7.6 C 7.33 g/m*3 7.6 C 0 km/h
49 02-03-2003 02:26:11 7.6 C 7.33 g/m*3 7.6 C 0 km/h
50 02-03-2003 02:26:37 7.6 C 7.33 g/m*3 7.6 C 0 km/h
Sensor: Nr:Datum:Temp:Abs-Feuchte:Windchill:Wind:
Aussen-T/F 51 02-03-2003 02:32:11 7.7 C 7.38 g/m*3 7.7 C 0 km/h
52 02-03-2003 02:32:37 7.7 C 7.38 g/m*3 7.7 C 0 km/h
53 02-03-2003 02:38:11 7.8 C 7.43 g/m*3 7.8 C 0 km/h
54 02-03-2003 02:38:37 7.8 C 7.43 g/m*3 7.8 C 0 km/h
55 02-03-2003 02:44:11 7.7 C 7.38 g/m*3 7.7 C 0 km/h
56 02-03-2003 02:44:37 7.7 C 7.38 g/m*3 7.7 C 0 km/h
57 02-03-2003 02:50:11 7.7 C 7.38 g/m*3 7.7 C 0 km/h
58 02-03-2003 02:50:37 7.7 C 7.38 g/m*3 7.7 C 0 km/h
59 02-03-2003 02:56:11 7.8 C 7.35 g/m*3 7.8 C 0 km/h
60 02-03-2003 02:56:37 7.8 C 7.35 g/m*3 7.8 C 0 km/h
61 02-03-2003 03:02:11 7.8 C 7.35 g/m*3 7.8 C 0 km/h
62 02-03-2003 03:02:37 7.8 C 7.35 g/m*3 7.8 C 0 km/h
63 02-03-2003 03:08:11 8 C 7.36 g/m*3 8 C 0 km/h
64 02-03-2003 03:08:37 8 C 7.36 g/m*3 8 C 0 km/h
65 02-03-2003 03:14:11 7.8 C 7.26 g/m*3 7.8 C 0 km/h
66 02-03-2003 03:14:37 7.8 C 7.26 g/m*3 7.8 C 0 km/h
67 02-03-2003 03:20:11 7.7 C 7.22 g/m*3 7.7 C 0 km/h
68 02-03-2003 03:20:37 7.7 C 7.22 g/m*3 7.7 C 0 km/h
69 02-03-2003 03:26:11 7.7 C 7.22 g/m*3 7.7 C 0 km/h
70 02-03-2003 03:26:37 7.7 C 7.22 g/m*3 7.7 C 0 km/h
71 02-03-2003 03:32:11 7.7 C 7.3 g/m*3 7.7 C 0 km/h
72 02-03-2003 03:32:37 7.7 C 7.3 g/m*3 7.7 C 0 km/h
73 02-03-2003 03:38:11 7.7 C 7.3 g/m*3 7.7 C 0 km/h
74 02-03-2003 03:38:37 7.7 C 7.3 g/m*3 7.7 C 0 km/h
75 02-03-2003 03:44:11 7.6 C 7.25 g/m*3 7.6 C 0 km/h
Sensor: Nr:Datum:Temp:Abs-Feuchte:Windchill:Wind:
Aussen-T/F 76 02-03-2003 03:44:37 7.6 C 7.25 g/m*3 7.6 C 0 km/h
77 02-03-2003 03:50:11 7.6 C 7.25 g/m*3 7.6 C 0 km/h
78 02-03-2003 03:50:37 7.6 C 7.25 g/m*3 7.6 C 0 km/h
79 02-03-2003 03:56:11 7.5 C 7.2 g/m*3 7.5 C 0 km/h
80 02-03-2003 03:56:37 7.5 C 7.2 g/m*3 7.5 C 0 km/h
81 02-03-2003 04:02:11 7.5 C 7.2 g/m*3 7.5 C 0 km/h
82 02-03-2003 04:02:37 7.5 C 7.2 g/m*3 7.5 C 0 km/h
83 02-03-2003 04:08:11 7.5 C 7.2 g/m*3 7.5 C 0 km/h
84 02-03-2003 04:08:37 7.5 C 7.2 g/m*3 7.5 C 0 km/h
85 02-03-2003 04:14:11 7.6 C 7.25 g/m*3 7.6 C 0 km/h
86 02-03-2003 04:14:37 7.6 C 7.25 g/m*3 7.6 C 0 km/h
87 02-03-2003 04:20:11 7.6 C 7.25 g/m*3 7.6 C 0 km/h
88 02-03-2003 04:20:37 7.6 C 7.25 g/m*3 7.6 C 0 km/h
89 02-03-2003 04:26:11 7.5 C 7.12 g/m*3 7.5 C 0 km/h
90 02-03-2003 04:26:37 7.5 C 7.12 g/m*3 7.5 C 0 km/h
91 02-03-2003 04:32:11 7.5 C 7.2 g/m*3 7.5 C 0 km/h
92 02-03-2003 04:32:37 7.5 C 7.2 g/m*3 7.5 C 0 km/h
93 02-03-2003 04:38:11 7.5 C 7.2 g/m*3 7.5 C 0 km/h
94 02-03-2003 04:38:37 7.5 C 7.2 g/m*3 7.5 C 0 km/h
95 02-03-2003 04:44:11 7.4 C 7.16 g/m*3 7.4 C 0 km/h
96 02-03-2003 04:44:37 7.4 C 7.16 g/m*3 7.4 C 0 km/h
97 02-03-2003 04:50:11 7.4 C 7.16 g/m*3 7.4 C 0 km/h
98 02-03-2003 04:50:37 7.4 C 7.16 g/m*3 7.4 C 0 km/h
99 02-03-2003 04:56:11 7.4 C 7.16 g/m*3 7.4 C 0 km/h
100 02-03-2003 04:56:37 7.4 C 7.16 g/m*3 7.4 C 0 km/h
Sensor: Nr:Datum:Temp:Abs-Feuchte:Windchill:Wind:
Aussen-T/F 101 02-03-2003 05:02:11 7.5 C 7.2 g/m*3 7.5 C 0 km/h
102 02-03-2003 05:02:37 7.5 C 7.2 g/m*3 7.5 C 0 km/h
103 02-03-2003 05:08:11 7.5 C 7.2 g/m*3 7.5 C 0 km/h
104 02-03-2003 05:08:37 7.5 C 7.2 g/m*3 7.5 C 0 km/h
105 02-03-2003 05:14:11 7.5 C 7.2 g/m*3 7.5 C 0 km/h
106 02-03-2003 05:14:37 7.5 C 7.2 g/m*3 7.5 C 0 km/h
107 02-03-2003 05:20:11 7.5 C 7.2 g/m*3 7.5 C 0 km/h
108 02-03-2003 05:20:37 7.5 C 7.2 g/m*3 7.5 C 0 km/h
109 02-03-2003 05:26:11 7.4 C 7.16 g/m*3 7.4 C 0 km/h
110 02-03-2003 05:26:37 7.4 C 7.16 g/m*3 7.4 C 0 km/h
111 02-03-2003 05:32:11 7.3 C 7.11 g/m*3 7.3 C 0 km/h
112 02-03-2003 05:32:37 7.3 C 7.11 g/m*3 7.3 C 0 km/h
113 02-03-2003 05:38:11 7.3 C 7.11 g/m*3 7.3 C 0 km/h
114 02-03-2003 05:38:37 7.3 C 7.11 g/m*3 7.3 C 0 km/h
115 02-03-2003 05:44:11 7.1 C 7.02 g/m*3 7.1 C 0 km/h
116 02-03-2003 05:44:37 7.1 C 7.02 g/m*3 7.1 C 0 km/h
117 02-03-2003 05:50:11 7.1 C 7.02 g/m*3 7.1 C 0 km/h
118 02-03-2003 05:50:37 7.1 C 7.02 g/m*3 7.1 C 0 km/h
119 02-03-2003 05:56:11 7.2 C 7.14 g/m*3 7.2 C 0 km/h
120 02-03-2003 05:56:37 7.2 C 7.14 g/m*3 7.2 C 0 km/h
121 02-03-2003 06:02:11 7.3 C 7.19 g/m*3 7.3 C 0 km/h
122 02-03-2003 06:02:37 7.3 C 7.19 g/m*3 7.3 C 0 km/h
123 02-03-2003 06:08:11 7.3 C 7.19 g/m*3 7.3 C 0 km/h
124 02-03-2003 06:08:37 7.3 C 7.19 g/m*3 7.3 C 0 km/h
125 02-03-2003 06:14:11 7.2 C 7.14 g/m*3 7.2 C 0 km/h
Sensor: Nr:Datum:Temp:Abs-Feuchte:Windchill:Wind:
Aussen-T/F 126 02-03-2003 06:14:37 7.2 C 7.14 g/m*3 7.2 C 0 km/h
127 02-03-2003 06:20:11 7.2 C 7.14 g/m*3 7.2 C 0 km/h
128 02-03-2003 06:20:37 7.2 C 7.14 g/m*3 7.2 C 0 km/h
129 02-03-2003 06:26:11 7.2 C 7.14 g/m*3 7.2 C 0 km/h
130 02-03-2003 06:26:37 7.2 C 7.14 g/m*3 7.2 C 0 km/h
131 02-03-2003 06:32:11 7.2 C 7.14 g/m*3 7.2 C 0 km/h
132 02-03-2003 06:32:37 7.2 C 7.14 g/m*3 7.2 C 0 km/h
133 02-03-2003 06:38:11 7.3 C 7.19 g/m*3 7.3 C 0 km/h
134 02-03-2003 06:38:37 7.3 C 7.19 g/m*3 7.3 C 0 km/h
135 02-03-2003 06:44:11 7.4 C 7.32 g/m*3 7.4 C 0 km/h
136 02-03-2003 06:44:37 7.4 C 7.32 g/m*3 7.4 C 0 km/h
137 02-03-2003 06:50:11 7.3 C 7.27 g/m*3 7.3 C 0 km/h
138 02-03-2003 06:50:37 7.3 C 7.27 g/m*3 7.3 C 0 km/h
139 02-03-2003 06:56:11 7.3 C 7.27 g/m*3 7.3 C 0 km/h
140 02-03-2003 06:56:37 7.3 C 7.27 g/m*3 7.3 C 0 km/h
141 02-03-2003 07:02:11 7.2 C 7.14 g/m*3 7.2 C 0 km/h
142 02-03-2003 07:02:37 7.2 C 7.14 g/m*3 7.2 C 0 km/h
143 02-03-2003 07:08:11 7.3 C 7.19 g/m*3 7.3 C 0 km/h
144 02-03-2003 07:08:37 7.3 C 7.19 g/m*3 7.3 C 0 km/h
145 02-03-2003 07:14:11 7.3 C 7.27 g/m*3 7.3 C 0 km/h
146 02-03-2003 07:14:37 7.3 C 7.27 g/m*3 7.3 C 0 km/h
147 02-03-2003 07:20:11 7.4 C 7.32 g/m*3 7.4 C 0 km/h
148 02-03-2003 07:20:37 7.4 C 7.32 g/m*3 7.4 C 0 km/h
149 02-03-2003 07:26:11 7.3 C 7.27 g/m*3 7.3 C 0 km/h
150 02-03-2003 07:26:37 7.3 C 7.27 g/m*3 7.3 C 0 km/h
Sensor: Nr:Datum:Temp:Abs-Feuchte:Windchill:Wind:
Aussen-T/F 151 02-03-2003 07:32:11 7.4 C 7.32 g/m*3 7.4 C 0 km/h
152 02-03-2003 07:32:37 7.4 C 7.32 g/m*3 7.4 C 0 km/h
153 02-03-2003 07:38:11 7.3 C 7.27 g/m*3 7.3 C 0 km/h
154 02-03-2003 07:38:37 7.3 C 7.27 g/m*3 7.3 C 0 km/h
155 02-03-2003 07:44:11 7.4 C 7.32 g/m*3 7.4 C 0 km/h
156 02-03-2003 07:44:37 7.4 C 7.32 g/m*3 7.4 C 0 km/h
157 02-03-2003 07:50:11 7.4 C 7.32 g/m*3 7.4 C 0 km/h
158 02-03-2003 07:50:37 7.4 C 7.32 g/m*3 7.4 C 0 km/h
159 02-03-2003 07:56:11 7.5 C 7.36 g/m*3 7.5 C 0 km/h
160 02-03-2003 07:56:37 7.5 C 7.36 g/m*3 7.5 C 0 km/h
161 02-03-2003 08:02:11 7.5 C 7.36 g/m*3 7.5 C 0 km/h
162 02-03-2003 08:02:37 7.5 C 7.36 g/m*3 7.5 C 0 km/h
163 02-03-2003 08:08:11 7.3 C 7.19 g/m*3 7.3 C 0 km/h
164 02-03-2003 08:08:37 7.3 C 7.19 g/m*3 7.3 C 0 km/h
165 02-03-2003 08:14:11 7.5 C 7.28 g/m*3 7.5 C 0 km/h
166 02-03-2003 08:14:37 7.5 C 7.28 g/m*3 7.5 C 0 km/h
167 02-03-2003 08:20:11 7.5 C 7.28 g/m*3 7.5 C 0 km/h
168 02-03-2003 08:20:37 7.5 C 7.28 g/m*3 7.5 C 0 km/h
169 02-03-2003 08:26:11 7.4 C 7.24 g/m*3 7.4 C 0 km/h
170 02-03-2003 08:26:37 7.4 C 7.24 g/m*3 7.4 C 0 km/h
171 02-03-2003 08:32:11 7.5 C 7.28 g/m*3 7.5 C 0 km/h
172 02-03-2003 08:32:37 7.5 C 7.28 g/m*3 7.5 C 0 km/h
173 02-03-2003 08:38:11 7.6 C 7.33 g/m*3 7.6 C 0 km/h
174 02-03-2003 08:38:37 7.6 C 7.33 g/m*3 7.6 C 0 km/h
175 02-03-2003 08:44:11 7.6 C 7.33 g/m*3 7.6 C 0 km/h
Sensor: Nr:Datum:Temp:Abs-Feuchte:Windchill:Wind:
Aussen-T/F 176 02-03-2003 08:44:37 7.6 C 7.33 g/m*3 7.6 C 0 km/h
177 02-03-2003 08:50:11 7.7 C 7.38 g/m*3 7.7 C 0 km/h
178 02-03-2003 08:50:37 7.7 C 7.38 g/m*3 7.7 C 0 km/h
179 02-03-2003 08:56:11 7.8 C 7.43 g/m*3 7.8 C 0 km/h
180 02-03-2003 08:56:37 7.8 C 7.43 g/m*3 7.8 C 0 km/h
181 02-03-2003 09:02:11 7.7 C 7.38 g/m*3 7.7 C 0 km/h
182 02-03-2003 09:02:37 7.7 C 7.38 g/m*3 7.7 C 0 km/h
183 02-03-2003 09:08:11 7.9 C 7.47 g/m*3 7.9 C 0 km/h
184 02-03-2003 09:08:37 7.9 C 7.47 g/m*3 7.9 C 0 km/h
185 02-03-2003 09:14:11 8.1 C 7.57 g/m*3 8.1 C 0 km/h
186 02-03-2003 09:14:37 8.1 C 7.57 g/m*3 8.1 C 0 km/h
187 02-03-2003 09:20:11 8.2 C 7.62 g/m*3 8.2 C 0 km/h
188 02-03-2003 09:20:37 8.2 C 7.62 g/m*3 8.2 C 0 km/h
189 02-03-2003 09:26:11 8.6 C 7.82 g/m*3 8.6 C 0 km/h
190 02-03-2003 09:26:37 8.6 C 7.82 g/m*3 8.6 C 0 km/h
191 02-03-2003 09:32:11 8.8 C 7.92 g/m*3 8.8 C 0 km/h
192 02-03-2003 09:32:37 8.8 C 7.92 g/m*3 8.8 C 0 km/h
193 02-03-2003 09:38:11 9 C 7.85 g/m*3 9 C 0 km/h
194 02-03-2003 09:38:37 9 C 7.85 g/m*3 9 C 0 km/h
195 02-03-2003 09:44:11 9.1 C 7.9 g/m*3 9.1 C 0 km/h
196 02-03-2003 09:44:37 9.1 C 7.9 g/m*3 9.1 C 0 km/h
197 02-03-2003 09:50:11 9.5 C 8.1 g/m*3 9.5 C 0 km/h
198 02-03-2003 09:50:37 9.5 C 8.1 g/m*3 9.5 C 0 km/h
199 02-03-2003 09:56:11 9.6 C 8.06 g/m*3 9.6 C 0 km/h
200 02-03-2003 09:56:37 9.6 C 8.06 g/m*3 9.6 C 0 km/h
Sensor: Nr:Datum:Temp:Abs-Feuchte:Windchill:Wind:
Aussen-T/F 201 02-03-2003 10:02:11 10.1 C 7.66 g/m*3 10.1 C 0 km/h
202 02-03-2003 10:02:37 10.1 C 7.66 g/m*3 10.1 C 0 km/h
203 02-03-2003 10:08:11 10.2 C 7.52 g/m*3 10.2 C 0 km/h
204 02-03-2003 10:08:37 10.2 C 7.52 g/m*3 10.2 C 0 km/h
205 02-03-2003 10:14:11 10.4 C 7.61 g/m*3 10.4 C 0 km/h
206 02-03-2003 10:14:37 10.4 C 7.61 g/m*3 10.4 C 0 km/h
207 02-03-2003 10:20:11 10.8 C 7.81 g/m*3 10.8 C 0 km/h
208 02-03-2003 10:20:37 10.8 C 7.81 g/m*3 10.8 C 0 km/h
209 02-03-2003 10:26:11 11.1 C 7.96 g/m*3 11.1 C 0 km/h
210 02-03-2003 10:26:37 11.1 C 7.96 g/m*3 11.1 C 0 km/h
211 02-03-2003 10:32:11 11.3 C 7.65 g/m*3 11.3 C 0 km/h
212 02-03-2003 10:32:37 11.3 C 7.65 g/m*3 11.3 C 0 km/h
213 02-03-2003 10:38:11 11.4 C 7.6 g/m*3 11.4 C 0 km/h
214 02-03-2003 10:38:37 11.4 C 7.6 g/m*3 11.4 C 0 km/h
215 02-03-2003 10:44:11 11.5 C 7.44 g/m*3 11.5 C 0 km/h
216 02-03-2003 10:44:37 11.5 C 7.44 g/m*3 11.5 C 0 km/h
217 02-03-2003 10:50:11 11.4 C 7.08 g/m*3 11.4 C 0 km/h
218 02-03-2003 10:50:37 11.4 C 7.08 g/m*3 11.4 C 0 km/h
219 02-03-2003 10:56:11 11.1 C 6.85 g/m*3 11.1 C 0 km/h
220 02-03-2003 10:56:37 11.1 C 6.85 g/m*3 11.1 C 0 km/h
221 02-03-2003 11:02:11 11.2 C 6.99 g/m*3 11.2 C 0 km/h
222 02-03-2003 11:02:37 11.2 C 6.99 g/m*3 11.2 C 0 km/h
223 02-03-2003 11:08:11 11.2 C 6.89 g/m*3 11.2 C 0 km/h
224 02-03-2003 11:08:37 11.2 C 6.89 g/m*3 11.2 C 0 km/h
225 02-03-2003 11:14:11 11.2 C 6.89 g/m*3 11.2 C 0 km/h
Sensor: Nr:Datum:Temp:Abs-Feuchte:Windchill:Wind:
Aussen-T/F 226 02-03-2003 11:14:37 11.2 C 6.89 g/m*3 11.2 C 0 km/h
227 02-03-2003 11:20:11 11.1 C 6.75 g/m*3 11.1 C 0 km/h
228 02-03-2003 11:20:37 11.1 C 6.75 g/m*3 11.1 C 0 km/h
229 02-03-2003 11:26:11 11.2 C 6.79 g/m*3 11.2 C 0 km/h
230 02-03-2003 11:26:37 11.2 C 6.79 g/m*3 11.2 C 0 km/h
231 02-03-2003 11:32:11 11.3 C 6.73 g/m*3 11.3 C 0 km/h
232 02-03-2003 11:32:37 11.3 C 6.73 g/m*3 11.3 C 0 km/h
233 02-03-2003 11:38:11 11.5 C 6.92 g/m*3 11.5 C 0 km/h
234 02-03-2003 11:38:37 11.5 C 6.92 g/m*3 11.5 C 0 km/h
235 02-03-2003 11:44:11 11.8 C 7.05 g/m*3 11.8 C 0 km/h
236 02-03-2003 11:44:37 11.8 C 7.05 g/m*3 11.8 C 0 km/h
237 02-03-2003 11:50:11 11.9 C 6.99 g/m*3 11.9 C 0 km/h
238 02-03-2003 11:50:37 11.9 C 6.99 g/m*3 11.9 C 0 km/h
239 02-03-2003 11:56:11 11.7 C 6.9 g/m*3 11.7 C 0 km/h
240 02-03-2003 11:56:37 11.7 C 6.9 g/m*3 11.7 C 0 km/h
241 02-03-2003 12:02:37 11.3 C 6.94 g/m*3 11.3 C 0 km/h
242 02-03-2003 12:02:54 11.3 C 6.94 g/m*3 11.3 C 0 km/h
243 02-03-2003 12:08:37 11 C 7.01 g/m*3 11 C 0 km/h
244 02-03-2003 12:08:54 11 C 7.01 g/m*3 11 C 0 km/h
245 02-03-2003 12:14:37 10.4 C 7.04 g/m*3 10.4 C 0 km/h
246 02-03-2003 12:14:54 10.4 C 7.04 g/m*3 10.4 C 0 km/h
247 02-03-2003 12:20:37 10.2 C 7.23 g/m*3 10.2 C 0 km/h
248 02-03-2003 12:20:54 10.2 C 7.23 g/m*3 10.2 C 0 km/h
249 02-03-2003 12:26:37 10 C 7.24 g/m*3 10 C 0 km/h
250 02-03-2003 12:26:54 10 C 7.24 g/m*3 10 C 0 km/h
Sensor: Nr:Datum:Temp:Abs-Feuchte:Windchill:Wind:
Aussen-T/F 251 02-03-2003 12:32:37 9.6 C 7.24 g/m*3 9.6 C 0 km/h
252 02-03-2003 12:32:54 9.6 C 7.24 g/m*3 9.6 C 0 km/h
253 02-03-2003 12:38:37 9.7 C 7.56 g/m*3 9.7 C 0 km/h
254 02-03-2003 12:38:54 9.7 C 7.56 g/m*3 9.7 C 0 km/h
255 02-03-2003 12:44:37 10.1 C 7.75 g/m*3 10.1 C 0 km/h
256 02-03-2003 12:44:54 10.1 C 7.75 g/m*3 10.1 C 0 km/h
257 02-03-2003 12:50:37 10.4 C 7.81 g/m*3 10.4 C 0 km/h
258 02-03-2003 12:50:54 10.4 C 7.81 g/m*3 10.4 C 0 km/h
259 02-03-2003 12:56:37 10.5 C 7.66 g/m*3 10.5 C 0 km/h
260 02-03-2003 12:56:54 10.5 C 7.66 g/m*3 10.5 C 0 km/h
261 02-03-2003 13:02:37 10.6 C 7.61 g/m*3 10.6 C 0 km/h
262 02-03-2003 13:02:54 10.6 C 7.61 g/m*3 10.6 C 0 km/h
263 02-03-2003 13:08:37 10.6 C 7.42 g/m*3 10.6 C 0 km/h
264 02-03-2003 13:08:54 10.6 C 7.42 g/m*3 10.6 C 0 km/h
265 02-03-2003 13:14:37 10.7 C 7.27 g/m*3 10.7 C 0 km/h
266 02-03-2003 13:14:54 10.7 C 7.27 g/m*3 10.7 C 0 km/h
267 02-03-2003 13:20:37 11 C 7.61 g/m*3 11 C 0 km/h
268 02-03-2003 13:20:54 11 C 7.61 g/m*3 11 C 0 km/h
269 02-03-2003 13:26:37 11.1 C 7.25 g/m*3 11.1 C 0 km/h
270 02-03-2003 13:26:54 11.1 C 7.25 g/m*3 11.1 C 0 km/h
271 02-03-2003 13:32:37 11.1 C 7.25 g/m*3 11.1 C 0 km/h
272 02-03-2003 13:32:54 11.1 C 7.25 g/m*3 11.1 C 0 km/h
273 02-03-2003 13:38:37 11 C 7.21 g/m*3 11 C 0 km/h
274 02-03-2003 13:38:54 11 C 7.21 g/m*3 11 C 0 km/h
275 02-03-2003 13:44:37 11.1 C 7.55 g/m*3 11.1 C 0 km/h
Sensor: Nr:Datum:Temp:Abs-Feuchte:Windchill:Wind:
Aussen-T/F 276 02-03-2003 13:44:54 11.1 C 7.55 g/m*3 11.1 C 0 km/h
277 02-03-2003 13:50:37 10.8 C 7.61 g/m*3 10.8 C 0 km/h
278 02-03-2003 13:50:54 10.8 C 7.61 g/m*3 10.8 C 0 km/h
279 02-03-2003 13:56:37 10.6 C 7.52 g/m*3 10.6 C 0 km/h
280 02-03-2003 13:56:54 10.6 C 7.52 g/m*3 10.6 C 0 km/h
281 02-03-2003 14:02:37 10.2 C 7.33 g/m*3 10.2 C 0 km/h
282 02-03-2003 14:02:54 10.2 C 7.33 g/m*3 10.2 C 0 km/h
283 02-03-2003 14:08:37 10.2 C 7.33 g/m*3 10.2 C 0 km/h
284 02-03-2003 14:08:54 10.2 C 7.33 g/m*3 10.2 C 0 km/h
285 02-03-2003 14:14:37 9.9 C 7.66 g/m*3 9.9 C 0 km/h
286 02-03-2003 14:14:54 9.9 C 7.66 g/m*3 9.9 C 0 km/h
287 02-03-2003 14:20:37 9.7 C 7.65 g/m*3 9.7 C 0 km/h
288 02-03-2003 14:20:54 9.7 C 7.65 g/m*3 9.7 C 0 km/h
289 02-03-2003 14:26:37 10 C 7.8 g/m*3 10 C 0 km/h
290 02-03-2003 14:26:54 10 C 7.8 g/m*3 10 C 0 km/h
291 02-03-2003 14:32:37 10.1 C 7.56 g/m*3 10.1 C 0 km/h
292 02-03-2003 14:32:54 10.1 C 7.56 g/m*3 10.1 C 0 km/h
293 02-03-2003 14:38:37 10.1 C 7.28 g/m*3 10.1 C 0 km/h
294 02-03-2003 14:38:54 10.1 C 7.28 g/m*3 10.1 C 0 km/h
295 02-03-2003 14:44:37 9.8 C 7.24 g/m*3 9.8 C 0 km/h
296 02-03-2003 14:44:54 9.8 C 7.24 g/m*3 9.8 C 0 km/h
297 02-03-2003 14:50:37 9.6 C 7.15 g/m*3 9.6 C 0 km/h
298 02-03-2003 14:50:54 9.6 C 7.15 g/m*3 9.6 C 0 km/h
299 02-03-2003 14:56:37 9.6 C 7.24 g/m*3 9.6 C 0 km/h
300 02-03-2003 14:56:54 9.6 C 7.24 g/m*3 9.6 C 0 km/h
Sensor: Nr:Datum:Temp:Abs-Feuchte:Windchill:Wind:
Aussen-T/F 301 02-03-2003 15:02:37 9.4 C 7.05 g/m*3 9.4 C 0 km/h
302 02-03-2003 15:02:54 9.4 C 7.05 g/m*3 9.4 C 0 km/h
303 02-03-2003 15:08:10 9.5 C 7.1 g/m*3 9.5 C 0 km/h
304 02-03-2003 15:08:37 9.5 C 7.1 g/m*3 9.5 C 0 km/h
305 02-03-2003 15:14:10 9.6 C 7.33 g/m*3 9.6 C 0 km/h
306 02-03-2003 15:14:37 9.6 C 7.33 g/m*3 9.6 C 0 km/h
307 02-03-2003 15:20:10 9.4 C 6.87 g/m*3 9.4 C 0 km/h
308 02-03-2003 15:20:37 9.4 C 6.87 g/m*3 9.4 C 0 km/h
309 02-03-2003 15:26:10 9.5 C 6.64 g/m*3 9.5 C 0 km/h
310 02-03-2003 15:26:37 9.5 C 6.64 g/m*3 9.5 C 0 km/h
311 02-03-2003 15:32:10 9.7 C 6.64 g/m*3 9.7 C 0 km/h
312 02-03-2003 15:32:37 9.7 C 6.64 g/m*3 9.7 C 0 km/h
313 02-03-2003 15:38:10 9.6 C 6.5 g/m*3 9.6 C 0 km/h
314 02-03-2003 15:38:37 9.6 C 6.5 g/m*3 9.6 C 0 km/h
315 02-03-2003 15:44:10 9.9 C 6.82 g/m*3 9.9 C 0 km/h
316 02-03-2003 15:44:37 9.9 C 6.82 g/m*3 9.9 C 0 km/h
317 02-03-2003 15:50:10 10 C 6.58 g/m*3 10 C 0 km/h
318 02-03-2003 15:50:37 10 C 6.58 g/m*3 10 C 0 km/h
319 02-03-2003 15:56:10 10 C 6.58 g/m*3 10 C 0 km/h
320 02-03-2003 15:56:37 10 C 6.58 g/m*3 10 C 0 km/h
321 02-03-2003 16:02:02 9.9 C 6.54 g/m*3 9.9 C 0 km/h
322 02-03-2003 16:02:37 9.9 C 6.54 g/m*3 9.9 C 0 km/h
323 02-03-2003 16:08:02 9.7 C 6.45 g/m*3 9.7 C 0 km/h
324 02-03-2003 16:08:37 9.7 C 6.45 g/m*3 9.7 C 0 km/h
325 02-03-2003 16:14:02 9.7 C 6.64 g/m*3 9.7 C 0 km/h
Sensor: Nr:Datum:Temp:Abs-Feuchte:Windchill:Wind:
Aussen-T/F 326 02-03-2003 16:14:37 9.7 C 6.64 g/m*3 9.7 C 0 km/h
327 02-03-2003 16:20:02 9.7 C 6.55 g/m*3 9.7 C 0 km/h
328 02-03-2003 16:20:37 9.7 C 6.55 g/m*3 9.7 C 0 km/h
329 02-03-2003 16:26:02 9.7 C 6.55 g/m*3 9.7 C 0 km/h
330 02-03-2003 16:26:37 9.7 C 6.55 g/m*3 9.7 C 0 km/h
331 02-03-2003 16:32:02 9.8 C 6.59 g/m*3 9.8 C 0 km/h
332 02-03-2003 16:32:37 9.8 C 6.59 g/m*3 9.8 C 0 km/h
333 02-03-2003 16:38:02 10.1 C 6.52 g/m*3 10.1 C 0 km/h
334 02-03-2003 16:38:37 10.1 C 6.52 g/m*3 10.1 C 0 km/h
335 02-03-2003 16:44:02 10.1 C 6.34 g/m*3 10.1 C 0 km/h
336 02-03-2003 16:44:37 10.1 C 6.34 g/m*3 10.1 C 0 km/h
337 02-03-2003 16:50:02 10 C 6.3 g/m*3 10 C 0 km/h
338 02-03-2003 16:50:37 10 C 6.3 g/m*3 10 C 0 km/h
339 02-03-2003 16:56:02 9.9 C 6.44 g/m*3 9.9 C 0 km/h
340 02-03-2003 16:56:37 9.9 C 6.44 g/m*3 9.9 C 0 km/h
341 02-03-2003 17:02:02 9.8 C 6.4 g/m*3 9.8 C 0 km/h
342 02-03-2003 17:02:37 9.8 C 6.4 g/m*3 9.8 C 0 km/h
343 02-03-2003 17:08:02 9.7 C 6.55 g/m*3 9.7 C 0 km/h
344 02-03-2003 17:08:37 9.7 C 6.55 g/m*3 9.7 C 0 km/h
345 02-03-2003 17:14:02 9.6 C 6.32 g/m*3 9.6 C 0 km/h
346 02-03-2003 17:14:37 9.6 C 6.32 g/m*3 9.6 C 0 km/h
347 02-03-2003 17:20:02 9.6 C 6.32 g/m*3 9.6 C 0 km/h
348 02-03-2003 17:20:37 9.6 C 6.32 g/m*3 9.6 C 0 km/h
349 02-03-2003 17:26:02 9.5 C 6.28 g/m*3 9.5 C 0 km/h
350 02-03-2003 17:26:37 9.5 C 6.28 g/m*3 9.5 C 0 km/h
Sensor: Nr:Datum:Temp:Abs-Feuchte:Windchill:Wind:
Aussen-T/F 351 02-03-2003 17:32:02 9.3 C 6.2 g/m*3 9.3 C 0 km/h
352 02-03-2003 17:32:37 9.3 C 6.2 g/m*3 9.3 C 0 km/h
353 02-03-2003 17:38:02 9.2 C 6.16 g/m*3 9.2 C 0 km/h
354 02-03-2003 17:38:37 9.2 C 6.16 g/m*3 9.2 C 0 km/h
355 02-03-2003 17:44:32 9.3 C 6.2 g/m*3 9.3 C 0 km/h
356 02-03-2003 17:44:37 9.3 C 6.2 g/m*3 9.3 C 0 km/h
357 02-03-2003 17:50:32 9.3 C 6.2 g/m*3 9.3 C 0 km/h
358 02-03-2003 17:50:37 9.3 C 6.2 g/m*3 9.3 C 0 km/h
359 02-03-2003 17:56:37 9.2 C 6.16 g/m*3 9.2 C 0 km/h
360 02-03-2003 18:02:37 9.1 C 6.03 g/m*3 9.1 C 0 km/h
361 02-03-2003 18:08:37 9 C 5.99 g/m*3 9 C 0 km/h
362 02-03-2003 18:14:37 8.9 C 6.04 g/m*3 8.9 C 0 km/h
363 02-03-2003 18:20:37 8.6 C 5.93 g/m*3 8.6 C 0 km/h
364 02-03-2003 18:26:37 8.3 C 5.98 g/m*3 8.3 C 0 km/h
365 02-03-2003 18:32:37 8.2 C 5.95 g/m*3 8.2 C 0 km/h
366 02-03-2003 18:38:37 8.1 C 5.91 g/m*3 8.1 C 0 km/h
367 02-03-2003 18:44:37 8 C 5.87 g/m*3 8 C 0 km/h
368 02-03-2003 18:50:37 7.9 C 6 g/m*3 7.9 C 0 km/h
369 02-03-2003 18:56:37 7.8 C 6.04 g/m*3 7.8 C 0 km/h
370 02-03-2003 19:02:37 7.7 C 6 g/m*3 7.7 C 0 km/h
371 02-03-2003 19:08:37 7.8 C 5.96 g/m*3 7.8 C 0 km/h
372 02-03-2003 19:14:37 7.8 C 6.04 g/m*3 7.8 C 0 km/h
373 02-03-2003 19:20:37 7.7 C 6 g/m*3 7.7 C 0 km/h
374 02-03-2003 19:26:37 7.5 C 6 g/m*3 7.5 C 0 km/h
375 02-03-2003 19:32:37 7.5 C 6 g/m*3 7.5 C 0 km/h
Sensor: Nr:Datum:Temp:Abs-Feuchte:Windchill:Wind:
Aussen-T/F 376 02-03-2003 19:38:37 7.4 C 6.04 g/m*3 7.4 C 0 km/h
377 02-03-2003 19:44:37 7.5 C 6 g/m*3 7.5 C 0 km/h
378 02-03-2003 19:50:37 7.7 C 6 g/m*3 7.7 C 0 km/h
379 02-03-2003 19:56:37 7.6 C 5.88 g/m*3 7.6 C 0 km/h
380 02-03-2003 20:02:37 7.5 C 5.92 g/m*3 7.5 C 0 km/h
381 02-03-2003 20:08:37 7.5 C 5.92 g/m*3 7.5 C 0 km/h
382 02-03-2003 20:14:37 7.5 C 5.92 g/m*3 7.5 C 0 km/h
383 02-03-2003 20:20:37 7.4 C 5.88 g/m*3 7.4 C 0 km/h
384 02-03-2003 20:26:37 7.3 C 5.85 g/m*3 7.3 C 0 km/h
385 02-03-2003 20:32:37 7 C 5.81 g/m*3 7 C 0 km/h
386 02-03-2003 20:38:37 6.9 C 5.85 g/m*3 6.9 C 0 km/h
387 02-03-2003 20:44:37 6.6 C 5.81 g/m*3 6.6 C 0 km/h
388 02-03-2003 20:51:11 6.3 C 5.77 g/m*3 6.3 C 0 km/h
389 02-03-2003 20:57:11 6 C 5.73 g/m*3 6 C 0 km/h
390 02-03-2003 21:03:11 5.9 C 5.77 g/m*3 5.9 C 0 km/h
391 02-03-2003 21:09:11 5.9 C 5.84 g/m*3 5.9 C 0 km/h
392 02-03-2003 21:15:11 6 C 5.81 g/m*3 6 C 0 km/h
393 02-03-2003 21:21:11 6 C 5.81 g/m*3 6 C 0 km/h
394 02-03-2003 21:27:11 5.9 C 5.84 g/m*3 5.9 C 0 km/h
395 02-03-2003 21:33:11 5.9 C 5.84 g/m*3 5.9 C 0 km/h
396 02-03-2003 21:39:11 6 C 5.81 g/m*3 6 C 0 km/h
397 02-03-2003 21:45:11 6 C 5.81 g/m*3 6 C 0 km/h
398 02-03-2003 21:51:11 5.9 C 5.84 g/m*3 5.9 C 0 km/h
399 02-03-2003 21:57:11 5.9 C 5.91 g/m*3 5.9 C 0 km/h
400 02-03-2003 22:03:11 6 C 5.88 g/m*3 6 C 0 km/h
Sensor: Nr:Datum:Temp:Abs-Feuchte:Windchill:Wind:
Aussen-T/F 401 02-03-2003 22:09:11 6.3 C 5.92 g/m*3 6.3 C 0 km/h
402 02-03-2003 22:15:11 6.7 C 6 g/m*3 6.7 C 0 km/h
403 02-03-2003 22:21:11 6.7 C 5.93 g/m*3 6.7 C 0 km/h
404 02-03-2003 22:27:11 6.7 C 5.93 g/m*3 6.7 C 0 km/h
405 02-03-2003 22:39:11 6.8 C 5.89 g/m*3 6.8 C 0 km/h
406 02-03-2003 22:45:11 6.9 C 5.93 g/m*3 6.9 C 0 km/h
407 02-03-2003 22:51:11 6.9 C 5.93 g/m*3 6.9 C 0 km/h
408 02-03-2003 22:57:11 6.8 C 5.81 g/m*3 6.8 C 0 km/h
409 02-03-2003 23:03:11 6.7 C 5.85 g/m*3 6.7 C 0 km/h
410 02-03-2003 23:09:11 6.8 C 5.89 g/m*3 6.8 C 0 km/h
411 02-03-2003 23:15:11 6.8 C 5.89 g/m*3 6.8 C 0 km/h
412 02-03-2003 23:21:11 6.8 C 5.89 g/m*3 6.8 C 0 km/h
413 02-03-2003 23:27:11 6.7 C 5.85 g/m*3 6.7 C 0 km/h
414 02-03-2003 23:33:11 6.7 C 5.85 g/m*3 6.7 C 0 km/h
415 02-03-2003 23:39:11 6.7 C 5.85 g/m*3 6.7 C 0 km/h
416 02-03-2003 23:45:11 6.7 C 5.93 g/m*3 6.7 C 0 km/h
417 02-03-2003 23:51:11 6.7 C 5.93 g/m*3 6.7 C 0 km/h
418 02-03-2003 23:57:11 6.5 C 5.85 g/m*3 6.5 C 0 km/h

Legende:
   Min
   Max


Maximal/Minimal-Werte vom 23.02.2003 - 30.09.2000

Sensor Min Max Avg
Temp
(Aussen-T/F)
°C
-- 
°C 0 °C

Die Daten stammen von einer Davis Vantage Pro 2 Wetter-Station und werden unter Linux mit der Software wview2wettercgi und aufbereitet. Alle Angaben erfolgen ohne Gewähr für ihre Vollständigkeit oder Richtigkeit.
Kontakt: Rainer Krienke krienke@uni-koblenz.de . Meine Webseiten an der Uni Koblenz oder privat.
Version: $Revision: 0.78 $